Pagrindinis puslapis
METAR-TAF:

METAR-TAF

Oro uostai :

Piarko tarptautinis oro uostas

Port of Speinas, Trinidadas, Trinidadas ir Tobagas

platuma: 10-37N, ilguma: 061-21W, Aukštis: 12 m

Dabartinis oras

Ataskaita buvo paskelbta 26 minutes, ne 03:00 UTC
Vėjas 7 kt iš Pietryčių
Temperatūra 25°C
Drėgmė 89%
Slėgis 1013 hPa
Matomumas 10 km arba daugiau
Išsisklaidę debesys ne aukštis 1600 ft

METAR: TTPP 170300Z 13007KT 9999 SCT016 25/23 Q1013 NOSIG

Laikas: 23:26 (03:26 UTC)

Prognozė

Ataskaita buvo paskelbta 5 valandos ir 26 minutes, ne 22:00 UTC
Prognozė galioja nuo 17 metu 00 UTC su 17 metu 24 UTC
Vėjas 5 kt iš Rytų
Matomumas 10 km arba daugiau
Mažai debesys ne aukštis 1800 ft
Laikinai
nuo 17 metu 07 UTC su 17 metu 12 UTC
Matomumas: 5000 m
Išsisklaidę debesys ne aukštis 1600 ft
lietus
Tapsmas
nuo 17 metu 12 UTC su 17 metu 14 UTC
Vėjas 14 kt iš Rytų
Išsisklaidę debesys ne aukštis 2000 ft

TAF: TTPP 162200Z 1700/1724 10005KT 9999 FEW018 TEMPO 1707/1712 5000 SHRA SCT016 BECMG 1712/1714 10014KT SCT020

Orai ataskaitas ir orų prognozės (METAR, TAF).

turimą stotys yra geltonos ir raudonos taškus žemėlapyje.

Perkelti pele per norėdami pamatyti stoties vardą.

Tada spustelėkite, norėdami matyti oro stebėjimo ir prognozės.

Norėdami pakeisti žemėlapį: spustelėkite ant žalios mygtukų su juodo kryžiaus žemyn,; žalią mygtuką su brūkšneliu, jei norite nutolinti; arba žalių rodyklių gretimoms žemėlapius.


METAR-TAF: